Alfa Nero — ZCTL4 — position and weather

sailwx.info

Track history (hours):
 
Tides and Currents Weather Stations Pressure Air Temp Water Temp Dewpoint Dewpoint Depression Visibility Wind Speed Wind Dir Waves Ship Positions

Alfa Nero

Last reported at 2017-Oct-01 15:09 UTC. Time now 2017-Nov-25 02:01 UTC.
Position N 43°28' E 006°58'.
Warning: this ship's position is 54 days out of date.

Length 81 m; draft 4 m.

Type: Pleasure craft. MMSI: 319957000.

Date/timePositionNaut miles runAvg speedWind from/ knotsBaromVisibWave heightAir tempDewpointWater temp
2017-Oct-01 15:09N 43°28' E 006°58'215.7
2017-Oct-01 15:00N 43°30' E 006°58'1 2.5
2017-Oct-01 14:30N 43°31' E 006°57'0 0.1
2017-Oct-01 14:00N 43°31' E 006°57'0 0.0
2017-Oct-01 13:30N 43°31' E 006°57'0 0.0
2017-Oct-01 13:00N 43°31' E 006°57'0 0.0
2017-Oct-01 12:30N 43°31' E 006°57'0 0.1
2017-Oct-01 12:00N 43°31' E 006°57'0 0.0
2017-Oct-01 11:30N 43°31' E 006°57'0 0.0
2017-Oct-01 11:00N 43°31' E 006°57'0 0.0
2017-Oct-01 10:30N 43°31' E 006°57'0 0.0
2017-Oct-01 10:00N 43°31' E 006°57'0 0.0
2017-Oct-01 09:30N 43°31' E 006°57'0 0.0
2017-Oct-01 09:00N 43°31' E 006°57'0 0.0
2017-Oct-01 08:30N 43°31' E 006°57'0 0.0
2017-Oct-01 08:00N 43°31' E 006°57'0 0.0
2017-Oct-01 07:30N 43°31' E 006°57'0 0.0
2017-Oct-01 07:00N 43°31' E 006°57'0 0.0
2017-Oct-01 06:30N 43°31' E 006°57'0 0.0
2017-Oct-01 06:00N 43°31' E 006°57'0 0.0
2017-Oct-01 05:30N 43°31' E 006°57'0 0.0
2017-Oct-01 05:00N 43°31' E 006°57'0 0.0
2017-Oct-01 04:30N 43°31' E 006°57'0 0.0
2017-Oct-01 04:00N 43°31' E 006°57'0 0.0
2017-Oct-01 03:30N 43°31' E 006°57'0 0.0
2017-Oct-01 03:00N 43°31' E 006°57'  
2017-Sep-28 05:55N 43°26' E 007°43'917.9
2017-Sep-28 05:25N 43°17' E 007°43'818.1
2017-Sep-28 05:00N 43°10' E 007°47'918.4
2017-Sep-28 04:30N 43°01' E 007°51'1118.1
2017-Sep-28 03:55N 42°51' E 007°57'1618.5
2017-Sep-28 03:04N 42°37' E 008°05'  
2017-Sep-24 20:12N 40°45' E 013°53'0 0.0
2017-Sep-24 20:00N 40°45' E 013°53'8 0.8
2017-Sep-24 10:25N 40°37' E 013°53'5718.2
2017-Sep-24 07:18N 39°50' E 014°34'618.0
2017-Sep-24 06:57N 39°45' E 014°38'6018.0
2017-Sep-24 03:36N 38°54' E 015°20'2018.7
2017-Sep-24 02:31N 38°36' E 015°33'318.2
2017-Sep-24 02:21N 38°33' E 015°34'617.8
2017-Sep-24 01:59N 38°27' E 015°38'917.8
2017-Sep-24 01:30N 38°19' E 015°43'715.2
2017-Sep-24 01:00N 38°14' E 015°37'917.3
2017-Sep-24 00:30N 38°05' E 015°36'1017.7
2017-Sep-23 23:56N 37°56' E 015°30'161 3.2
2017-Sep-21 21:35N 39°57' E 017°47'217.7
2017-Sep-21 21:29N 39°58' E 017°45'817.7
2017-Sep-21 21:00N 40°03' E 017°37'917.7
2017-Sep-21 20:30N 40°09' E 017°28'917.7
2017-Sep-21 20:00N 40°15' E 017°19'917.7
2017-Sep-21 19:30N 40°21' E 017°10'510.7
2017-Sep-21 19:01N 40°26' E 017°11'3 5.1
2017-Sep-21 18:31N 40°28' E 017°13'0 0.1
2017-Sep-21 18:00N 40°28' E 017°13'0 0.0
2017-Sep-21 17:30N 40°28' E 017°13'0 0.0
2017-Sep-21 17:01N 40°28' E 017°13'0 0.0
2017-Sep-21 16:31N 40°28' E 017°13'0 0.0
2017-Sep-21 16:01N 40°28' E 017°13'0 0.0
2017-Sep-21 15:31N 40°28' E 017°13'  
Track history (hours):
 
Tides and Currents Weather Stations Pressure Air Temp Water Temp Dewpoint Dewpoint Depression Visibility Wind Speed Wind Dir Waves Ship Positions

Alfa Nero

Last reported at 2017-Oct-01 15:09 UTC. Time now 2017-Nov-25 02:01 UTC.
Position N 43°28' E 006°58'.
Warning: this ship's position is 54 days out of date.

Length 81 m; draft 4 m.

Type: Pleasure craft. MMSI: 319957000.

Date/timePositionNaut miles runAvg speedWind from/ knotsBaromVisibWave heightAir tempDewpointWater temp
2017-Oct-01 15:09N 43°28' E 006°58'215.7
2017-Oct-01 15:00N 43°30' E 006°58'1 2.5
2017-Oct-01 14:30N 43°31' E 006°57'0 0.1
2017-Oct-01 14:00N 43°31' E 006°57'0 0.0
2017-Oct-01 13:30N 43°31' E 006°57'0 0.0
2017-Oct-01 13:00N 43°31' E 006°57'0 0.0
2017-Oct-01 12:30N 43°31' E 006°57'0 0.1
2017-Oct-01 12:00N 43°31' E 006°57'0 0.0
2017-Oct-01 11:30N 43°31' E 006°57'0 0.0
2017-Oct-01 11:00N 43°31' E 006°57'0 0.0
2017-Oct-01 10:30N 43°31' E 006°57'0 0.0
2017-Oct-01 10:00N 43°31' E 006°57'0 0.0
2017-Oct-01 09:30N 43°31' E 006°57'0 0.0
2017-Oct-01 09:00N 43°31' E 006°57'0 0.0
2017-Oct-01 08:30N 43°31' E 006°57'0 0.0
2017-Oct-01 08:00N 43°31' E 006°57'0 0.0
2017-Oct-01 07:30N 43°31' E 006°57'0 0.0
2017-Oct-01 07:00N 43°31' E 006°57'0 0.0
2017-Oct-01 06:30N 43°31' E 006°57'0 0.0
2017-Oct-01 06:00N 43°31' E 006°57'0 0.0
2017-Oct-01 05:30N 43°31' E 006°57'0 0.0
2017-Oct-01 05:00N 43°31' E 006°57'0 0.0
2017-Oct-01 04:30N 43°31' E 006°57'0 0.0
2017-Oct-01 04:00N 43°31' E 006°57'0 0.0
2017-Oct-01 03:30N 43°31' E 006°57'0 0.0
2017-Oct-01 03:00N 43°31' E 006°57'  
2017-Sep-28 05:55N 43°26' E 007°43'917.9
2017-Sep-28 05:25N 43°17' E 007°43'818.1
2017-Sep-28 05:00N 43°10' E 007°47'918.4
2017-Sep-28 04:30N 43°01' E 007°51'1118.1
2017-Sep-28 03:55N 42°51' E 007°57'1618.5
2017-Sep-28 03:04N 42°37' E 008°05'  
2017-Sep-24 20:12N 40°45' E 013°53'0 0.0
2017-Sep-24 20:00N 40°45' E 013°53'8 0.8
2017-Sep-24 10:25N 40°37' E 013°53'5718.2
2017-Sep-24 07:18N 39°50' E 014°34'618.0
2017-Sep-24 06:57N 39°45' E 014°38'6018.0
2017-Sep-24 03:36N 38°54' E 015°20'2018.7
2017-Sep-24 02:31N 38°36' E 015°33'318.2
2017-Sep-24 02:21N 38°33' E 015°34'617.8
2017-Sep-24 01:59N 38°27' E 015°38'917.8
2017-Sep-24 01:30N 38°19' E 015°43'715.2
2017-Sep-24 01:00N 38°14' E 015°37'917.3
2017-Sep-24 00:30N 38°05' E 015°36'1017.7
2017-Sep-23 23:56N 37°56' E 015°30'161 3.2
2017-Sep-21 21:35N 39°57' E 017°47'217.7
2017-Sep-21 21:29N 39°58' E 017°45'817.7
2017-Sep-21 21:00N 40°03' E 017°37'917.7
2017-Sep-21 20:30N 40°09' E 017°28'917.7
2017-Sep-21 20:00N 40°15' E 017°19'917.7
2017-Sep-21 19:30N 40°21' E 017°10'510.7
2017-Sep-21 19:01N 40°26' E 017°11'3 5.1
2017-Sep-21 18:31N 40°28' E 017°13'0 0.1
2017-Sep-21 18:00N 40°28' E 017°13'0 0.0
2017-Sep-21 17:30N 40°28' E 017°13'0 0.0
2017-Sep-21 17:01N 40°28' E 017°13'0 0.0
2017-Sep-21 16:31N 40°28' E 017°13'0 0.0
2017-Sep-21 16:01N 40°28' E 017°13'0 0.0
2017-Sep-21 15:31N 40°28' E 017°13'  

Dump ship's entire track history